sensor_id;sensor_type;location;lat;lon;timestamp;temperature;humidity
39401;DHT22;54391;50.000;7.360;2023-04-24T10:17:12;9.20;39.20
39401;DHT22;54391;50.000;7.360;2023-04-24T10:19:43;9.50;35.80
39401;DHT22;54391;50.000;7.360;2023-04-24T10:22:10;9.50;34.30
39401;DHT22;54391;50.000;7.360;2023-04-24T10:24:38;9.40;34.10
39401;DHT22;54391;50.000;7.360;2023-04-24T10:27:06;9.70;35.60
39401;DHT22;54391;50.000;7.360;2023-04-24T10:29:36;9.30;36.60
39401;DHT22;54391;50.000;7.360;2023-04-24T10:32:06;9.70;33.10
39401;DHT22;54391;50.000;7.360;2023-04-24T10:34:36;10.70;31.30
39401;DHT22;54391;50.000;7.360;2023-04-24T10:37:04;10.50;33.00
39401;DHT22;54391;50.000;7.360;2023-04-24T10:39:31;9.20;31.50
39401;DHT22;54391;50.000;7.360;2023-04-24T10:44:36;8.90;36.30
39401;DHT22;54391;50.000;7.360;2023-04-24T10:47:03;9.00;38.10
39401;DHT22;54391;50.000;7.360;2023-04-24T10:49:31;9.40;37.50
39401;DHT22;54391;50.000;7.360;2023-04-24T10:52:02;9.10;36.90
39401;DHT22;54391;50.000;7.360;2023-04-24T10:54:35;9.00;33.80
39401;DHT22;54391;50.000;7.360;2023-04-24T10:57:27;8.90;31.80
39401;DHT22;54391;50.000;7.360;2023-04-24T11:00:14;9.10;30.50
39401;DHT22;54391;50.000;7.360;2023-04-24T11:02:42;9.10;28.50
39401;DHT22;54391;50.000;7.360;2023-04-24T11:05:15;9.10;29.20
39401;DHT22;54391;50.000;7.360;2023-04-24T11:08:13;9.00;28.50
39401;DHT22;54391;50.000;7.360;2023-04-24T11:10:44;9.00;27.20
39401;DHT22;54391;50.000;7.360;2023-04-24T11:13:14;9.00;29.60
39401;DHT22;54391;50.000;7.360;2023-04-24T11:15:42;9.10;31.80
39401;DHT22;54391;50.000;7.360;2023-04-24T11:18:13;8.90;29.80
39401;DHT22;54391;50.000;7.360;2023-04-24T11:20:42;9.00;29.80
39401;DHT22;54391;50.000;7.360;2023-04-24T11:23:13;8.90;29.80
39401;DHT22;54391;50.000;7.360;2023-04-24T11:25:41;9.00;31.10
39401;DHT22;54391;50.000;7.360;2023-04-24T11:28:14;11.50;30.80
39401;DHT22;54391;50.000;7.360;2023-04-24T11:30:43;8.60;29.70
39401;DHT22;54391;50.000;7.360;2023-04-24T11:33:10;8.50;29.40
39401;DHT22;54391;50.000;7.360;2023-04-24T11:35:40;8.60;28.90
39401;DHT22;54391;50.000;7.360;2023-04-24T11:38:07;8.80;26.20
39401;DHT22;54391;50.000;7.360;2023-04-24T11:40:37;9.00;24.60
39401;DHT22;54391;50.000;7.360;2023-04-24T11:43:04;9.30;21.30
39401;DHT22;54391;50.000;7.360;2023-04-24T11:45:33;10.20;20.90
39401;DHT22;54391;50.000;7.360;2023-04-24T11:48:00;10.80;16.10
39401;DHT22;54391;50.000;7.360;2023-04-24T11:50:27;10.70;15.50
39401;DHT22;54391;50.000;7.360;2023-04-24T11:52:56;10.30;13.40
39401;DHT22;54391;50.000;7.360;2023-04-24T11:55:28;10.00;16.00
39401;DHT22;54391;50.000;7.360;2023-04-24T11:57:58;9.90;15.70
39401;DHT22;54391;50.000;7.360;2023-04-24T12:00:29;9.70;18.20
39401;DHT22;54391;50.000;7.360;2023-04-24T12:03:04;9.30;20.00
39401;DHT22;54391;50.000;7.360;2023-04-24T12:05:33;8.90;25.30
39401;DHT22;54391;50.000;7.360;2023-04-24T12:08:00;8.70;28.10
39401;DHT22;54391;50.000;7.360;2023-04-24T12:10:29;6.70;28.50
39401;DHT22;54391;50.000;7.360;2023-04-24T12:12:59;9.00;30.30
39401;DHT22;54391;50.000;7.360;2023-04-24T12:15:29;9.20;28.80
39401;DHT22;54391;50.000;7.360;2023-04-24T12:17:57;9.40;25.30
39401;DHT22;54391;50.000;7.360;2023-04-24T12:20:26;10.00;23.00
39401;DHT22;54391;50.000;7.360;2023-04-24T12:22:54;10.10;17.80
39401;DHT22;54391;50.000;7.360;2023-04-24T12:25:23;10.60;15.30
39401;DHT22;54391;50.000;7.360;2023-04-24T12:27:53;9.90;17.10
39401;DHT22;54391;50.000;7.360;2023-04-24T12:30:27;10.50;17.40
39401;DHT22;54391;50.000;7.360;2023-04-24T12:32:57;9.50;15.50
39401;DHT22;54391;50.000;7.360;2023-04-24T12:35:29;9.60;16.80
39401;DHT22;54391;50.000;7.360;2023-04-24T12:38:05;9.70;15.40
39401;DHT22;54391;50.000;7.360;2023-04-24T12:45:30;9.60;14.50
39401;DHT22;54391;50.000;7.360;2023-04-24T12:47:57;9.70;15.00
39401;DHT22;54391;50.000;7.360;2023-04-24T12:50:25;9.70;13.70
39401;DHT22;54391;50.000;7.360;2023-04-24T12:55:19;9.50;12.60
39401;DHT22;54391;50.000;7.360;2023-04-24T12:57:47;9.50;13.00
39401;DHT22;54391;50.000;7.360;2023-04-24T13:00:15;9.50;13.70
39401;DHT22;54391;50.000;7.360;2023-04-24T13:02:43;9.50;13.40
39401;DHT22;54391;50.000;7.360;2023-04-24T13:05:11;9.60;12.80
39401;DHT22;54391;50.000;7.360;2023-04-24T13:07:39;9.50;12.20
39401;DHT22;54391;50.000;7.360;2023-04-24T13:10:07;9.60;12.80
39401;DHT22;54391;50.000;7.360;2023-04-24T13:12:35;9.80;13.20
39401;DHT22;54391;50.000;7.360;2023-04-24T13:15:03;9.90;12.50
39401;DHT22;54391;50.000;7.360;2023-04-24T13:17:30;9.80;12.40
39401;DHT22;54391;50.000;7.360;2023-04-24T13:19:59;9.70;11.90
39401;DHT22;54391;50.000;7.360;2023-04-24T13:24:56;9.30;14.30
39401;DHT22;54391;50.000;7.360;2023-04-24T13:27:23;9.40;15.20
39401;DHT22;54391;50.000;7.360;2023-04-24T13:29:50;9.30;17.60
39401;DHT22;54391;50.000;7.360;2023-04-24T13:32:18;9.40;18.90
39401;DHT22;54391;50.000;7.360;2023-04-24T13:34:45;9.30;20.50
39401;DHT22;54391;50.000;7.360;2023-04-24T13:37:14;9.40;21.60
39401;DHT22;54391;50.000;7.360;2023-04-24T13:39:41;9.70;21.40
39401;DHT22;54391;50.000;7.360;2023-04-24T13:44:36;9.80;17.00
39401;DHT22;54391;50.000;7.360;2023-04-24T13:47:03;9.80;15.10
39401;DHT22;54391;50.000;7.360;2023-04-24T13:49:31;9.90;15.70
39401;DHT22;54391;50.000;7.360;2023-04-24T13:51:58;9.80;15.30
39401;DHT22;54391;50.000;7.360;2023-04-24T13:54:29;9.70;14.10
39401;DHT22;54391;50.000;7.360;2023-04-24T13:56:57;9.60;13.50
39401;DHT22;54391;50.000;7.360;2023-04-24T13:59:25;9.60;14.90
39401;DHT22;54391;50.000;7.360;2023-04-24T14:01:52;9.70;17.60
39401;DHT22;54391;50.000;7.360;2023-04-24T14:09:14;10.20;13.80
39401;DHT22;54391;50.000;7.360;2023-04-24T14:11:43;10.10;13.30
39401;DHT22;54391;50.000;7.360;2023-04-24T14:14:10;9.90;14.30
39401;DHT22;54391;50.000;7.360;2023-04-24T14:16:37;9.70;14.60
39401;DHT22;54391;50.000;7.360;2023-04-24T14:19:05;9.80;16.40
39401;DHT22;54391;50.000;7.360;2023-04-24T14:21:32;10.00;15.30
39401;DHT22;54391;50.000;7.360;2023-04-24T14:24:00;10.00;15.00
39401;DHT22;54391;50.000;7.360;2023-04-24T14:26:27;10.10;15.70
39401;DHT22;54391;50.000;7.360;2023-04-24T14:28:56;10.30;15.70
39401;DHT22;54391;50.000;7.360;2023-04-24T14:31:24;10.40;14.70
39401;DHT22;54391;50.000;7.360;2023-04-24T14:38:46;10.30;16.30
39401;DHT22;54391;50.000;7.360;2023-04-24T14:41:14;10.20;14.10
39401;DHT22;54391;50.000;7.360;2023-04-24T14:43:41;10.00;15.00
39401;DHT22;54391;50.000;7.360;2023-04-24T14:46:10;9.80;17.80
39401;DHT22;54391;50.000;7.360;2023-04-24T14:48:37;9.60;23.70
39401;DHT22;54391;50.000;7.360;2023-04-24T14:51:04;9.20;32.10
39401;DHT22;54391;50.000;7.360;2023-04-24T14:53:31;8.50;38.70
39401;DHT22;54391;50.000;7.360;2023-04-24T14:58:26;8.50;42.20
39401;DHT22;54391;50.000;7.360;2023-04-24T15:00:54;8.60;41.00
39401;DHT22;54391;50.000;7.360;2023-04-24T15:03:22;8.80;42.50
39401;DHT22;54391;50.000;7.360;2023-04-24T15:05:50;9.00;38.20
39401;DHT22;54391;50.000;7.360;2023-04-24T15:10:45;9.20;36.30
39401;DHT22;54391;50.000;7.360;2023-04-24T15:13:12;9.20;31.80
39401;DHT22;54391;50.000;7.360;2023-04-24T15:15:39;9.10;35.50
39401;DHT22;54391;50.000;7.360;2023-04-24T15:18:08;9.20;34.20
39401;DHT22;54391;50.000;7.360;2023-04-24T15:20:38;9.40;33.90
39401;DHT22;54391;50.000;7.360;2023-04-24T15:23:07;9.40;35.80
39401;DHT22;54391;50.000;7.360;2023-04-24T15:28:02;9.40;34.90
39401;DHT22;54391;50.000;7.360;2023-04-24T15:30:30;9.40;34.70
39401;DHT22;54391;50.000;7.360;2023-04-24T15:32:59;9.40;32.40
39401;DHT22;54391;50.000;7.360;2023-04-24T15:35:28;10.70;34.70
39401;DHT22;54391;50.000;7.360;2023-04-24T15:37:57;9.90;35.80
39401;DHT22;54391;50.000;7.360;2023-04-24T15:47:46;10.00;29.40
39401;DHT22;54391;50.000;7.360;2023-04-24T15:55:11;9.80;23.90
39401;DHT22;54391;50.000;7.360;2023-04-24T15:57:38;9.90;25.20
39401;DHT22;54391;50.000;7.360;2023-04-24T16:00:07;9.80;24.50
39401;DHT22;54391;50.000;7.360;2023-04-24T16:05:06;9.80;27.10
39401;DHT22;54391;50.000;7.360;2023-04-24T16:07:36;9.80;26.70
39401;DHT22;54391;50.000;7.360;2023-04-24T16:10:04;9.90;27.50
39401;DHT22;54391;50.000;7.360;2023-04-24T16:12:33;9.90;26.80
39401;DHT22;54391;50.000;7.360;2023-04-24T16:15:00;9.90;24.10
39401;DHT22;54391;50.000;7.360;2023-04-24T16:19:55;9.60;23.70
39401;DHT22;54391;50.000;7.360;2023-04-24T16:27:17;9.30;25.00
39401;DHT22;54391;50.000;7.360;2023-04-24T16:29:46;9.00;26.40
39401;DHT22;54391;50.000;7.360;2023-04-24T16:32:13;9.00;28.50
39401;DHT22;54391;50.000;7.360;2023-04-24T16:34:40;9.10;27.90
39401;DHT22;54391;50.000;7.360;2023-04-24T16:42:08;9.00;26.40
39401;DHT22;54391;50.000;7.360;2023-04-24T16:44:36;9.00;28.30
39401;DHT22;54391;50.000;7.360;2023-04-24T16:47:05;9.00;25.80
39401;DHT22;54391;50.000;7.360;2023-04-24T16:49:33;8.90;27.30
39401;DHT22;54391;50.000;7.360;2023-04-24T16:52:00;8.90;27.10
39401;DHT22;54391;50.000;7.360;2023-04-24T16:54:27;8.90;27.30
39401;DHT22;54391;50.000;7.360;2023-04-24T16:56:57;8.90;28.70
39401;DHT22;54391;50.000;7.360;2023-04-24T17:01:51;8.80;31.00
39401;DHT22;54391;50.000;7.360;2023-04-24T17:04:20;8.70;37.90
39401;DHT22;54391;50.000;7.360;2023-04-24T17:06:47;8.20;45.60
39401;DHT22;54391;50.000;7.360;2023-04-24T17:09:17;7.70;50.40
39401;DHT22;54391;50.000;7.360;2023-04-24T17:14:12;7.00;55.00
39401;DHT22;54391;50.000;7.360;2023-04-24T17:21:36;6.90;61.70
39401;DHT22;54391;50.000;7.360;2023-04-24T17:24:03;6.90;61.80
39401;DHT22;54391;50.000;7.360;2023-04-24T17:26:31;7.00;65.20
39401;DHT22;54391;50.000;7.360;2023-04-24T17:28:58;7.00;59.30
39401;DHT22;54391;50.000;7.360;2023-04-24T17:31:25;7.50;63.90
39401;DHT22;54391;50.000;7.360;2023-04-24T17:33:52;7.10;66.00
39401;DHT22;54391;50.000;7.360;2023-04-24T17:36:20;7.30;59.90
39401;DHT22;54391;50.000;7.360;2023-04-24T17:38:48;7.30;58.70
39401;DHT22;54391;50.000;7.360;2023-04-24T17:43:44;7.30;57.40
39401;DHT22;54391;50.000;7.360;2023-04-24T17:46:11;7.30;56.90
39401;DHT22;54391;50.000;7.360;2023-04-24T17:51:06;7.20;58.60
39401;DHT22;54391;50.000;7.360;2023-04-24T17:56:02;7.30;60.30
39401;DHT22;54391;50.000;7.360;2023-04-24T17:58:29;7.30;60.10
39401;DHT22;54391;50.000;7.360;2023-04-24T18:00:57;7.40;63.80
39401;DHT22;54391;50.000;7.360;2023-04-24T18:03:24;7.40;64.00
39401;DHT22;54391;50.000;7.360;2023-04-24T18:05:51;7.40;63.80
39401;DHT22;54391;50.000;7.360;2023-04-24T18:08:18;7.40;63.40
39401;DHT22;54391;50.000;7.360;2023-04-24T18:10:46;7.40;62.70
39401;DHT22;54391;50.000;7.360;2023-04-24T18:13:15;7.40;64.90
39401;DHT22;54391;50.000;7.360;2023-04-24T18:15:42;7.70;64.00
39401;DHT22;54391;50.000;7.360;2023-04-24T18:20:37;7.30;70.70
39401;DHT22;54391;50.000;7.360;2023-04-24T18:23:07;7.00;70.70
39401;DHT22;54391;50.000;7.360;2023-04-24T18:25:35;7.30;75.60
39401;DHT22;54391;50.000;7.360;2023-04-24T18:28:02;7.20;75.30
39401;DHT22;54391;50.000;7.360;2023-04-24T18:30:30;7.10;77.00
39401;DHT22;54391;50.000;7.360;2023-04-24T18:32:59;7.10;75.30
39401;DHT22;54391;50.000;7.360;2023-04-24T18:35:27;7.00;74.90
39401;DHT22;54391;50.000;7.360;2023-04-24T18:37:54;6.90;78.10
39401;DHT22;54391;50.000;7.360;2023-04-24T18:45:17;6.50;73.70
39401;DHT22;54391;50.000;7.360;2023-04-24T18:47:45;6.80;73.30
39401;DHT22;54391;50.000;7.360;2023-04-24T18:50:12;6.80;71.90
39401;DHT22;54391;50.000;7.360;2023-04-24T18:52:40;6.70;73.20
39401;DHT22;54391;50.000;7.360;2023-04-24T18:55:08;6.80;75.90
39401;DHT22;54391;50.000;7.360;2023-04-24T18:57:35;6.80;76.90
39401;DHT22;54391;50.000;7.360;2023-04-24T19:00:04;6.80;79.60
39401;DHT22;54391;50.000;7.360;2023-04-24T19:02:32;6.80;78.80
39401;DHT22;54391;50.000;7.360;2023-04-24T19:05:00;6.80;78.20
39401;DHT22;54391;50.000;7.360;2023-04-24T19:07:28;6.80;78.40
39401;DHT22;54391;50.000;7.360;2023-04-24T19:09:55;6.80;79.10
39401;DHT22;54391;50.000;7.360;2023-04-24T19:17:20;6.60;80.10
39401;DHT22;54391;50.000;7.360;2023-04-24T19:19:50;6.50;78.10
39401;DHT22;54391;50.000;7.360;2023-04-24T19:22:19;6.60;81.60
39401;DHT22;54391;50.000;7.360;2023-04-24T19:24:46;6.50;83.40
39401;DHT22;54391;50.000;7.360;2023-04-24T19:32:08;6.30;90.50
39401;DHT22;54391;50.000;7.360;2023-04-24T19:34:36;6.20;90.80
39401;DHT22;54391;50.000;7.360;2023-04-24T19:39:32;6.20;92.70
39401;DHT22;54391;50.000;7.360;2023-04-24T19:44:29;6.10;90.50
39401;DHT22;54391;50.000;7.360;2023-04-24T19:46:56;6.10;86.90
39401;DHT22;54391;50.000;7.360;2023-04-24T19:49:23;6.10;85.90
39401;DHT22;54391;50.000;7.360;2023-04-24T19:51:51;6.10;82.00
39401;DHT22;54391;50.000;7.360;2023-04-24T19:56:47;6.10;83.10
39401;DHT22;54391;50.000;7.360;2023-04-24T19:59:14;6.30;85.30
39401;DHT22;54391;50.000;7.360;2023-04-24T20:01:42;6.10;84.10
39401;DHT22;54391;50.000;7.360;2023-04-24T20:06:38;6.20;83.60
39401;DHT22;54391;50.000;7.360;2023-04-24T20:09:06;6.20;80.80
39401;DHT22;54391;50.000;7.360;2023-04-24T20:14:02;6.10;80.20
39401;DHT22;54391;50.000;7.360;2023-04-24T20:18:57;6.10;82.10
39401;DHT22;54391;50.000;7.360;2023-04-24T20:21:24;6.10;81.30
39401;DHT22;54391;50.000;7.360;2023-04-24T20:23:52;6.10;81.70
39401;DHT22;54391;50.000;7.360;2023-04-24T20:28:48;6.00;85.90
39401;DHT22;54391;50.000;7.360;2023-04-24T20:31:18;6.00;86.60
39401;DHT22;54391;50.000;7.360;2023-04-24T20:33:46;5.90;88.40
39401;DHT22;54391;50.000;7.360;2023-04-24T20:36:13;5.90;89.50
39401;DHT22;54391;50.000;7.360;2023-04-24T20:38:40;6.00;90.70
39401;DHT22;54391;50.000;7.360;2023-04-24T20:41:08;6.00;90.70
39401;DHT22;54391;50.000;7.360;2023-04-24T20:43:35;6.00;91.40
39401;DHT22;54391;50.000;7.360;2023-04-24T20:46:04;6.00;89.90
39401;DHT22;54391;50.000;7.360;2023-04-24T20:48:33;6.00;91.60
39401;DHT22;54391;50.000;7.360;2023-04-24T20:53:28;6.00;90.40
39401;DHT22;54391;50.000;7.360;2023-04-24T20:55:55;6.00;91.10
39401;DHT22;54391;50.000;7.360;2023-04-24T21:00:50;6.00;93.20
39401;DHT22;54391;50.000;7.360;2023-04-24T21:03:17;6.00;92.90
39401;DHT22;54391;50.000;7.360;2023-04-24T21:05:46;6.10;93.80
39401;DHT22;54391;50.000;7.360;2023-04-24T21:08:14;6.10;92.20
39401;DHT22;54391;50.000;7.360;2023-04-24T21:10:41;6.00;90.70
39401;DHT22;54391;50.000;7.360;2023-04-24T21:13:09;6.00;92.00
39401;DHT22;54391;50.000;7.360;2023-04-24T21:15:36;6.00;91.90
39401;DHT22;54391;50.000;7.360;2023-04-24T21:18:03;6.10;92.60
39401;DHT22;54391;50.000;7.360;2023-04-24T21:20:31;6.00;91.20
39401;DHT22;54391;50.000;7.360;2023-04-24T21:22:59;6.00;92.40
39401;DHT22;54391;50.000;7.360;2023-04-24T21:25:27;6.00;93.10
39401;DHT22;54391;50.000;7.360;2023-04-24T21:27:57;6.00;92.20
39401;DHT22;54391;50.000;7.360;2023-04-24T21:30:25;6.00;93.50
39401;DHT22;54391;50.000;7.360;2023-04-24T21:32:52;6.00;93.20
39401;DHT22;54391;50.000;7.360;2023-04-24T21:40:17;6.00;92.30
39401;DHT22;54391;50.000;7.360;2023-04-24T21:42:45;6.10;92.90
39401;DHT22;54391;50.000;7.360;2023-04-24T21:45:12;6.10;92.70
39401;DHT22;54391;50.000;7.360;2023-04-24T21:47:39;5.90;92.30
39401;DHT22;54391;50.000;7.360;2023-04-24T21:50:08;6.00;92.70
39401;DHT22;54391;50.000;7.360;2023-04-24T21:55:03;6.00;93.20
39401;DHT22;54391;50.000;7.360;2023-04-24T21:57:32;6.10;94.00
39401;DHT22;54391;50.000;7.360;2023-04-24T22:02:27;6.10;93.00
39401;DHT22;54391;50.000;7.360;2023-04-24T22:04:55;6.00;93.00
39401;DHT22;54391;50.000;7.360;2023-04-24T22:07:22;6.10;94.40
39401;DHT22;54391;50.000;7.360;2023-04-24T22:12:17;6.10;92.70
39401;DHT22;54391;50.000;7.360;2023-04-24T22:14:45;7.30;93.90
39401;DHT22;54391;50.000;7.360;2023-04-24T22:19:42;6.10;92.70
39401;DHT22;54391;50.000;7.360;2023-04-24T22:22:09;6.10;92.70
39401;DHT22;54391;50.000;7.360;2023-04-24T22:24:36;6.20;93.50
39401;DHT22;54391;50.000;7.360;2023-04-24T22:27:04;6.20;93.60
39401;DHT22;54391;50.000;7.360;2023-04-24T22:29:31;6.10;93.30
39401;DHT22;54391;50.000;7.360;2023-04-24T22:32:00;6.10;93.90
39401;DHT22;54391;50.000;7.360;2023-04-24T22:34:29;6.10;93.60
39401;DHT22;54391;50.000;7.360;2023-04-24T22:36:56;6.10;93.60
39401;DHT22;54391;50.000;7.360;2023-04-24T22:39:23;6.00;93.80
39401;DHT22;54391;50.000;7.360;2023-04-24T22:41:50;6.10;95.30
39401;DHT22;54391;50.000;7.360;2023-04-24T22:44:18;6.00;95.10
39401;DHT22;54391;50.000;7.360;2023-04-24T22:49:14;6.00;95.30
39401;DHT22;54391;50.000;7.360;2023-04-24T22:51:42;5.90;95.50
39401;DHT22;54391;50.000;7.360;2023-04-24T22:54:10;6.00;96.50
39401;DHT22;54391;50.000;7.360;2023-04-24T22:56:37;5.90;96.20
39401;DHT22;54391;50.000;7.360;2023-04-24T22:59:04;5.90;96.00
39401;DHT22;54391;50.000;7.360;2023-04-24T23:01:31;5.90;97.50
39401;DHT22;54391;50.000;7.360;2023-04-24T23:03:59;5.90;98.10
39401;DHT22;54391;50.000;7.360;2023-04-24T23:06:27;5.90;97.70
39401;DHT22;54391;50.000;7.360;2023-04-24T23:08:54;5.90;97.60
39401;DHT22;54391;50.000;7.360;2023-04-24T23:13:49;5.90;97.20
39401;DHT22;54391;50.000;7.360;2023-04-24T23:21:12;5.90;98.40
39401;DHT22;54391;50.000;7.360;2023-04-24T23:23:40;6.00;98.50
39401;DHT22;54391;50.000;7.360;2023-04-24T23:26:07;6.10;97.80
39401;DHT22;54391;50.000;7.360;2023-04-24T23:31:03;6.00;96.40
39401;DHT22;54391;50.000;7.360;2023-04-24T23:35:58;6.00;95.00
39401;DHT22;54391;50.000;7.360;2023-04-24T23:38:25;6.10;95.40
39401;DHT22;54391;50.000;7.360;2023-04-24T23:40:54;6.10;94.40
39401;DHT22;54391;50.000;7.360;2023-04-24T23:45:48;5.90;94.60
39401;DHT22;54391;50.000;7.360;2023-04-24T23:53:10;6.00;95.70
39401;DHT22;54391;50.000;7.360;2023-04-24T23:55:38;6.00;95.60
39401;DHT22;54391;50.000;7.360;2023-04-24T23:58:06;6.00;95.00
